createdAt,value
2023-02-17T00:04:54.565Z,11.10
2023-02-17T00:09:58.200Z,11.10
2023-02-17T00:15:01.866Z,11.10
2023-02-17T00:20:08.501Z,11.10
2023-02-17T00:25:12.235Z,11.10
2023-02-17T00:30:17.194Z,11.10
2023-02-17T00:35:22.282Z,11.10
2023-02-17T00:40:25.982Z,11.10
2023-02-17T00:45:29.643Z,11.10
2023-02-17T00:50:34.734Z,11.10
2023-02-17T00:55:41.646Z,11.10
2023-02-17T01:00:45.285Z,11.20
2023-02-17T01:05:50.982Z,11.10
2023-02-17T01:10:55.094Z,11.20
2023-02-17T01:15:58.935Z,11.10
2023-02-17T01:21:03.890Z,11.20
2023-02-17T01:26:15.016Z,11.20
2023-02-17T01:31:19.466Z,11.10
2023-02-17T01:36:24.723Z,11.20
2023-02-17T01:41:29.655Z,11.10
2023-02-17T01:46:34.248Z,11.20
2023-02-17T01:51:40.600Z,11.20
2023-02-17T01:56:49.688Z,11.20
2023-02-17T02:01:58.355Z,11.10
2023-02-17T02:07:05.125Z,11.20
2023-02-17T02:12:19.809Z,11.10
2023-02-17T02:17:32.956Z,11.10
2023-02-17T02:23:10.642Z,11.10
2023-02-17T02:28:27.771Z,11.10
2023-02-17T02:33:39.474Z,11.10
2023-02-17T02:38:48.834Z,11.10
2023-02-17T02:43:53.471Z,11.10
2023-02-17T02:48:58.582Z,11.10
2023-02-17T02:54:32.170Z,11.00
2023-02-17T02:59:50.753Z,11.00
2023-02-17T03:05:04.361Z,11.00
2023-02-17T03:10:10.397Z,11.00
2023-02-17T03:15:22.188Z,11.00
2023-02-17T03:20:28.895Z,11.00
2023-02-17T03:25:34.475Z,11.00
2023-02-17T03:30:40.035Z,11.00
2023-02-17T03:35:45.988Z,11.00
2023-02-17T03:40:50.282Z,10.90
2023-02-17T03:45:54.455Z,10.90
2023-02-17T03:51:12.211Z,10.90
2023-02-17T03:56:17.235Z,10.90
2023-02-17T04:01:21.514Z,10.90
2023-02-17T04:06:26.863Z,10.90
2023-02-17T04:11:30.883Z,10.90
2023-02-17T04:16:34.631Z,10.90
2023-02-17T04:21:39.975Z,10.90
2023-02-17T04:26:43.717Z,10.90
2023-02-17T04:31:47.606Z,10.90
2023-02-17T04:36:52.901Z,10.90
2023-02-17T04:41:56.660Z,10.90
2023-02-17T04:47:00.453Z,10.90
2023-02-17T04:52:06.403Z,10.90
2023-02-17T04:57:10.806Z,10.90
2023-02-17T05:02:14.703Z,10.90
2023-02-17T05:07:26.786Z,10.90
2023-02-17T05:12:30.671Z,10.90
2023-02-17T05:17:34.970Z,10.90
2023-02-17T05:22:40.053Z,10.80
2023-02-17T05:27:43.860Z,10.80
2023-02-17T05:32:47.565Z,10.80
2023-02-17T05:37:52.727Z,10.80
2023-02-17T05:42:56.578Z,10.80
2023-02-17T05:48:00.481Z,10.80
2023-02-17T05:53:05.893Z,10.80
2023-02-17T05:58:09.844Z,10.90
2023-02-17T06:03:14.181Z,10.80
2023-02-17T06:08:21.617Z,10.80
2023-02-17T06:13:26.494Z,10.80
2023-02-17T06:18:30.875Z,10.80
2023-02-17T06:23:36.314Z,10.80
2023-02-17T06:28:43.295Z,10.80
2023-02-17T06:33:46.914Z,10.90
2023-02-17T06:38:51.968Z,10.90
2023-02-17T06:43:58.805Z,10.90
2023-02-17T06:49:02.615Z,10.90
2023-02-17T06:54:07.955Z,10.90
2023-02-17T06:59:11.670Z,10.90
2023-02-17T07:04:15.352Z,10.90
2023-02-17T07:09:20.483Z,11.00
2023-02-17T07:14:25.071Z,11.00
2023-02-17T07:19:29.274Z,11.00
2023-02-17T07:24:35.097Z,11.00
2023-02-17T07:29:38.850Z,11.00
2023-02-17T07:34:42.595Z,11.10
2023-02-17T07:39:47.909Z,11.00
2023-02-17T07:44:51.759Z,11.10
2023-02-17T07:49:55.978Z,11.10
2023-02-17T07:55:01.243Z,11.10
2023-02-17T08:00:06.297Z,11.10
2023-02-17T08:05:20.043Z,11.20
2023-02-17T08:10:39.290Z,11.20
2023-02-17T08:15:43.097Z,11.30
2023-02-17T08:20:46.981Z,11.30
2023-02-17T08:25:52.159Z,11.30
2023-02-17T08:30:56.016Z,11.30
2023-02-17T08:35:59.780Z,11.30
2023-02-17T08:41:14.058Z,11.30
2023-02-17T08:46:19.063Z,11.40
2023-02-17T08:51:26.293Z,11.40
2023-02-17T08:56:31.701Z,11.60
2023-02-17T09:01:36.520Z,11.60
2023-02-17T09:06:43.195Z,11.70
2023-02-17T09:11:48.330Z,11.80
2023-02-17T09:16:52.447Z,11.80
2023-02-17T09:21:56.536Z,11.90
2023-02-17T09:27:02.984Z,11.90
2023-02-17T09:32:09.255Z,11.90
2023-02-17T09:37:14.477Z,12.00
2023-02-17T09:42:22.601Z,12.00
2023-02-17T09:47:32.829Z,12.00
2023-02-17T09:52:42.261Z,12.00
2023-02-17T09:57:54.806Z,12.10
2023-02-17T10:03:05.884Z,12.10
2023-02-17T10:08:16.043Z,12.10
2023-02-17T10:13:25.326Z,12.20
2023-02-17T10:18:34.547Z,12.20
2023-02-17T10:23:38.717Z,12.20
2023-02-17T10:28:51.597Z,12.30
2023-02-17T10:34:01.697Z,12.30
2023-02-17T10:39:12.800Z,12.30
2023-02-17T10:44:21.626Z,12.30
2023-02-17T10:49:31.360Z,12.30
2023-02-17T10:54:40.571Z,12.30
2023-02-17T10:59:47.421Z,12.40
2023-02-17T11:04:55.011Z,12.40
2023-02-17T11:10:02.600Z,12.40
2023-02-17T11:15:17.774Z,12.40
2023-02-17T11:20:41.793Z,12.50
2023-02-17T11:25:57.245Z,12.50
2023-02-17T11:31:04.902Z,12.50
2023-02-17T11:36:13.670Z,12.50
2023-02-17T11:41:18.159Z,12.60
2023-02-17T11:46:28.941Z,12.60
2023-02-17T11:51:45.298Z,12.70
2023-02-17T11:57:01.103Z,12.70
2023-02-17T12:02:31.617Z,12.80
2023-02-17T12:07:45.535Z,12.80
2023-02-17T12:13:04.466Z,12.70
2023-02-17T12:18:24.937Z,12.70
2023-02-17T12:23:40.388Z,12.70
2023-02-17T12:29:01.008Z,12.70
2023-02-17T12:34:16.369Z,12.70
2023-02-17T12:39:24.466Z,12.80
2023-02-17T12:44:31.606Z,12.80
2023-02-17T12:49:42.101Z,12.70
2023-02-17T12:54:50.508Z,12.70
2023-02-17T12:59:55.630Z,12.80
2023-02-17T13:05:08.620Z,12.70
2023-02-17T13:10:34.761Z,12.70
2023-02-17T13:15:42.436Z,12.70
2023-02-17T13:20:59.311Z,12.70
2023-02-17T13:26:26.429Z,12.70
2023-02-17T13:31:30.416Z,12.70
2023-02-17T13:36:39.107Z,12.80
2023-02-17T13:41:47.941Z,12.80
2023-02-17T13:46:52.675Z,12.70
2023-02-17T13:52:09.354Z,12.70
2023-02-17T13:57:27.537Z,12.70
2023-02-17T14:02:36.421Z,12.70
2023-02-17T14:07:41.750Z,12.70
2023-02-17T14:12:45.693Z,12.60
2023-02-17T14:17:49.693Z,12.60
2023-02-17T14:23:04.536Z,12.60
2023-02-17T14:28:20.249Z,12.60
2023-02-17T14:33:25.463Z,12.70
2023-02-17T14:38:32.952Z,12.70
2023-02-17T14:43:37.531Z,12.70
2023-02-17T14:48:41.269Z,12.80
2023-02-17T14:53:46.858Z,12.90
2023-02-17T14:58:53.020Z,12.80
2023-02-17T15:03:56.788Z,12.80
2023-02-17T15:09:02.483Z,12.80
2023-02-17T15:14:07.118Z,12.80
2023-02-17T15:19:11.127Z,12.80
2023-02-17T15:24:19.185Z,12.80
2023-02-17T15:29:25.143Z,12.80
2023-02-17T15:34:32.094Z,12.70
2023-02-17T15:39:37.158Z,12.70
2023-02-17T15:44:43.747Z,12.70
2023-02-17T15:49:47.688Z,12.70
2023-02-17T15:54:53.918Z,12.60
2023-02-17T15:59:57.871Z,12.70
2023-02-17T16:05:01.517Z,12.70
2023-02-17T16:10:07.934Z,12.70
2023-02-17T16:15:16.297Z,12.70
2023-02-17T16:20:22.964Z,12.60
2023-02-17T16:25:30.085Z,12.60
2023-02-17T16:30:35.977Z,12.60
2023-02-17T16:35:39.881Z,12.60
2023-02-17T16:40:49.669Z,12.50
2023-02-17T16:45:56.048Z,12.60
2023-02-17T16:50:59.999Z,12.50
2023-02-17T16:56:15.102Z,12.50
2023-02-17T17:01:19.061Z,12.50
2023-02-17T17:06:25.351Z,12.50
2023-02-17T17:11:30.421Z,12.50
2023-02-17T17:16:35.732Z,12.50
2023-02-17T17:21:39.448Z,12.40
2023-02-17T17:26:47.686Z,12.40
2023-02-17T17:31:51.542Z,12.40
2023-02-17T17:36:55.306Z,12.40
2023-02-17T17:42:00.444Z,12.30
2023-02-17T17:47:04.305Z,12.30
2023-02-17T17:52:08.221Z,12.30
2023-02-17T17:57:13.312Z,12.30
2023-02-17T18:02:17.020Z,12.20
2023-02-17T18:07:20.779Z,12.20
2023-02-17T18:12:26.101Z,12.20
2023-02-17T18:17:32.304Z,12.20
2023-02-17T18:22:35.905Z,12.10
2023-02-17T18:27:43.098Z,12.10
2023-02-17T18:32:47.196Z,12.10
2023-02-17T18:37:51.050Z,12.10
2023-02-17T18:42:56.506Z,12.10
2023-02-17T18:48:00.566Z,12.00
2023-02-17T18:53:05.426Z,12.00
2023-02-17T18:58:12.414Z,12.00
2023-02-17T19:03:16.299Z,12.00
2023-02-17T19:08:20.049Z,12.00
2023-02-17T19:13:25.088Z,12.00
2023-02-17T19:18:28.745Z,12.00
2023-02-17T19:23:32.555Z,12.00
2023-02-17T19:28:39.565Z,11.90
2023-02-17T19:33:44.399Z,11.90
2023-02-17T19:38:48.855Z,11.90
2023-02-17T19:43:53.953Z,11.90
2023-02-17T19:48:57.677Z,11.80
2023-02-17T19:54:02.640Z,11.80
2023-02-17T19:59:07.682Z,11.80
2023-02-17T20:04:11.820Z,11.80
2023-02-17T20:09:17.364Z,11.70
2023-02-17T20:14:22.853Z,11.70
2023-02-17T20:19:26.504Z,11.70
2023-02-17T20:24:30.180Z,11.70
2023-02-17T20:29:36.347Z,11.70
2023-02-17T20:34:40.690Z,11.80
2023-02-17T20:39:44.521Z,11.80
2023-02-17T20:44:51.059Z,11.80
2023-02-17T20:49:54.840Z,11.80
2023-02-17T20:54:58.531Z,11.80
2023-02-17T21:00:05.328Z,11.80
2023-02-17T21:05:09.314Z,11.80
2023-02-17T21:10:18.720Z,11.80
2023-02-17T21:15:24.075Z,11.80
2023-02-17T21:20:27.755Z,11.80
2023-02-17T21:25:31.563Z,11.80
2023-02-17T21:30:36.644Z,11.80
2023-02-17T21:35:41.663Z,11.80
2023-02-17T21:40:45.453Z,11.80
2023-02-17T21:45:50.543Z,11.80
2023-02-17T21:50:54.243Z,11.80
2023-02-17T21:55:57.877Z,11.80
2023-02-17T22:01:03.149Z,11.80
2023-02-17T22:06:15.147Z,11.80
2023-02-17T22:11:21.221Z,11.90
2023-02-17T22:16:27.093Z,11.90
2023-02-17T22:21:30.893Z,11.90
2023-02-17T22:26:34.666Z,11.90
2023-02-17T22:31:39.850Z,11.90
2023-02-17T22:36:43.708Z,11.90
2023-02-17T22:41:47.487Z,11.90
2023-02-17T22:46:52.611Z,11.90
2023-02-17T22:51:56.348Z,11.90
2023-02-17T22:57:00.217Z,11.90
2023-02-17T23:02:05.359Z,11.90
2023-02-17T23:07:09.585Z,11.90
2023-02-17T23:12:13.348Z,11.90
2023-02-17T23:17:18.585Z,11.90
2023-02-17T23:22:22.442Z,11.90
2023-02-17T23:27:26.154Z,11.80
2023-02-17T23:32:31.208Z,11.90
2023-02-17T23:37:34.974Z,11.80
2023-02-17T23:42:38.818Z,11.90
2023-02-17T23:47:43.983Z,11.80
2023-02-17T23:52:47.648Z,11.80
2023-02-17T23:57:51.376Z,11.90
